Time;durP1;ratioP1;P1;durP2;ratioP2;P2;SDS_P1;SDS_P2;PMS_P1;PMS_P2;Temp;Humidity;BMP_temperature;BMP_pressure;BME280_temperature;BME280_humidity;BME280_pressure;Samples;Min_cycle;Max_cycle;Signal;HPM_P1;HPM_P2
2023/08/02 00:02:19;;;;;;;9.55;4.72;;;15.80;99.90;;;;;;6093621;23;20025;-83
2023/08/02 00:04:45;;;;;;;9.18;4.57;;;15.70;99.90;;;;;;6093669;23;20018;-83
2023/08/02 00:07:11;;;;;;;9.02;4.95;;;15.70;99.90;;;;;;6093634;23;20519;-84
2023/08/02 00:09:36;;;;;;;7.70;5.18;;;15.70;99.90;;;;;;6094452;23;20018;-84
2023/08/02 00:12:02;;;;;;;10.48;5.18;;;15.70;99.90;;;;;;6094315;23;20090;-83
2023/08/02 00:14:28;;;;;;;10.02;5.22;;;15.70;99.90;;;;;;6094177;23;20093;-83
2023/08/02 00:16:54;;;;;;;8.10;4.82;;;15.70;99.90;;;;;;6093460;23;20045;-84
2023/08/02 00:19:19;;;;;;;8.82;5.20;;;15.70;99.90;;;;;;6093015;23;20018;-84
2023/08/02 00:21:45;;;;;;;7.43;4.65;;;15.70;99.90;;;;;;6093641;23;20037;-84
2023/08/02 00:24:11;;;;;;;7.53;4.63;;;15.70;99.90;;;;;;6094085;23;20425;-84
2023/08/02 00:26:37;;;;;;;8.73;5.07;;;15.70;99.90;;;;;;6069751;23;20370;-83
2023/08/02 00:29:03;;;;;;;7.85;4.53;;;15.60;99.90;;;;;;6093754;23;20073;-83
2023/08/02 00:31:29;;;;;;;5.88;4.40;;;15.70;99.90;;;;;;6096161;23;20093;-83
2023/08/02 00:33:54;;;;;;;5.10;4.57;;;15.70;99.90;;;;;;6093891;23;20069;-82
2023/08/02 00:36:20;;;;;;;6.85;4.70;;;15.70;99.90;;;;;;6094346;23;20014;-83
2023/08/02 00:38:46;;;;;;;8.82;4.57;;;15.70;99.90;;;;;;6093734;23;20052;-83
2023/08/02 00:41:12;;;;;;;7.05;4.85;;;15.70;99.90;;;;;;6070319;23;20556;-83
2023/08/02 00:43:42;;;;;;;8.68;5.00;;;15.70;99.90;;;;;;6094431;23;20018;-82
2023/08/02 00:46:09;;;;;;;8.25;4.75;;;15.70;99.90;;;;;;6093859;23;20018;-83
2023/08/02 00:48:35;;;;;;;8.05;4.60;;;15.60;99.90;;;;;;6094678;23;20048;-83
2023/08/02 00:51:02;;;;;;;7.90;4.82;;;15.70;99.90;;;;;;6095425;23;20014;-84
2023/08/02 00:53:28;;;;;;;6.78;4.75;;;15.60;99.90;;;;;;6093458;23;20333;-83
2023/08/02 00:55:56;;;;;;;7.07;4.55;;;15.60;99.90;;;;;;6093735;23;20018;-83
2023/08/02 00:58:22;;;;;;;8.23;4.75;;;15.60;99.90;;;;;;6093633;23;20029;-82
2023/08/02 01:00:48;;;;;;;12.10;4.93;;;15.60;99.90;;;;;;6095232;23;20015;-82
2023/08/02 01:03:14;;;;;;;10.02;4.85;;;15.60;99.90;;;;;;6093919;23;20022;-83
2023/08/02 01:05:47;;;;;;;9.35;4.72;;;15.60;99.90;;;;;;6094309;23;20042;-83
2023/08/02 01:08:22;;;;;;;8.40;4.97;;;15.60;99.90;;;;;;6041232;23;20402;-82
2023/08/02 01:11:17;;;;;;;7.75;4.90;;;15.60;99.90;;;;;;6066714;23;20011;-82
2023/08/02 01:13:50;;;;;;;8.02;5.05;;;15.60;99.90;;;;;;6041092;23;20094;-83
2023/08/02 01:16:17;;;;;;;11.00;5.43;;;15.60;99.90;;;;;;6017608;23;20019;-83
2023/08/02 01:18:42;;;;;;;12.88;6.20;;;15.60;99.90;;;;;;5993793;23;20098;-82
2023/08/02 01:21:08;;;;;;;8.18;5.35;;;15.60;99.90;;;;;;6066514;23;20054;-83
2023/08/02 01:23:34;;;;;;;10.38;5.55;;;15.60;99.90;;;;;;6041683;23;20015;-85
2023/08/02 01:26:02;;;;;;;6.95;5.30;;;15.60;99.90;;;;;;6041290;23;20055;-83
2023/08/02 01:28:32;;;;;;;8.90;5.18;;;15.60;99.90;;;;;;6040692;23;20015;-83
2023/08/02 01:31:00;;;;;;;9.48;5.55;;;15.60;99.90;;;;;;6066490;23;20018;-82
2023/08/02 01:33:27;;;;;;;10.02;5.18;;;15.60;99.90;;;;;;6040982;23;20034;-83
2023/08/02 01:35:53;;;;;;;11.25;5.10;;;15.60;99.90;;;;;;6017361;23;20015;-83
2023/08/02 01:38:19;;;;;;;9.95;5.30;;;15.60;99.90;;;;;;6040669;23;20027;-82
2023/08/02 01:40:44;;;;;;;5.55;4.72;;;15.60;99.90;;;;;;6040985;23;20019;-84
2023/08/02 01:43:10;;;;;;;7.72;5.35;;;15.60;99.90;;;;;;6040823;23;20011;-82
2023/08/02 01:45:36;;;;;;;10.32;5.10;;;15.60;99.90;;;;;;6066078;23;20019;-82
2023/08/02 01:48:02;;;;;;;12.90;5.63;;;15.60;99.90;;;;;;6040745;23;20098;-82
2023/08/02 01:50:27;;;;;;;10.32;5.55;;;15.60;99.90;;;;;;6042965;23;20019;-83
2023/08/02 01:52:53;;;;;;;8.70;5.03;;;15.50;99.90;;;;;;6042812;23;20023;-83
2023/08/02 01:55:19;;;;;;;10.52;5.40;;;15.50;99.90;;;;;;6042472;23;20090;-82
2023/08/02 01:57:45;;;;;;;8.82;4.75;;;15.60;99.90;;;;;;6042483;23;20083;-82
2023/08/02 02:00:12;;;;;;;9.85;5.32;;;15.60;99.90;;;;;;6067910;23;20011;-83
2023/08/02 02:02:38;;;;;;;12.80;5.80;;;15.60;99.90;;;;;;6042819;23;20015;-83
2023/08/02 02:05:04;;;;;;;9.02;5.65;;;15.60;99.90;;;;;;6042693;23;20038;-83
2023/08/02 02:07:30;;;;;;;8.88;5.50;;;15.60;99.90;;;;;;6032046;23;20025;-83
2023/08/02 02:09:56;;;;;;;10.27;6.13;;;15.60;99.90;;;;;;6095949;23;20015;-83
2023/08/02 02:12:22;;;;;;;8.98;5.32;;;15.60;99.90;;;;;;6095660;23;20440;-83
2023/08/02 02:14:47;;;;;;;14.23;5.60;;;15.60;99.90;;;;;;6071747;23;20015;-83
2023/08/02 02:17:13;;;;;;;8.38;4.90;;;15.50;99.90;;;;;;6095344;23;20015;-82
2023/08/02 02:19:39;;;;;;;12.23;5.65;;;15.50;99.90;;;;;;6094947;23;20026;-83
2023/08/02 02:22:04;;;;;;;13.52;4.93;;;15.50;99.90;;;;;;6071468;23;20024;-82
2023/08/02 02:24:30;;;;;;;9.50;5.40;;;15.50;99.90;;;;;;6097265;23;20014;-82
2023/08/02 02:26:56;;;;;;;10.98;5.88;;;15.50;99.90;;;;;;6095930;23;20014;-83
2023/08/02 02:29:22;;;;;;;12.35;5.63;;;15.50;99.90;;;;;;6095458;23;20014;-82
2023/08/02 02:31:48;;;;;;;10.57;5.22;;;15.50;99.90;;;;;;6095666;23;20021;-82
2023/08/02 02:34:14;;;;;;;13.63;5.35;;;15.50;99.90;;;;;;6096734;23;20018;-85
2023/08/02 02:36:40;;;;;;;11.52;6.07;;;15.50;99.90;;;;;;6095217;23;20018;-82
2023/08/02 02:39:05;;;;;;;11.88;5.85;;;15.50;99.90;;;;;;6095082;23;20089;-82
2023/08/02 02:41:31;;;;;;;13.30;6.38;;;15.50;99.90;;;;;;6094955;23;20127;-82
2023/08/02 02:43:57;;;;;;;12.82;5.82;;;15.50;99.90;;;;;;6094918;23;20164;-82
2023/08/02 02:46:22;;;;;;;13.63;6.50;;;15.50;99.90;;;;;;6096253;23;20411;-82
2023/08/02 02:48:48;;;;;;;11.68;5.70;;;15.50;99.90;;;;;;6071521;23;20124;-82
2023/08/02 02:51:14;;;;;;;14.32;5.68;;;15.50;99.90;;;;;;6094377;23;20289;-82
2023/08/02 02:53:40;;;;;;;22.80;6.80;;;15.50;99.90;;;;;;6094480;23;20019;-82
2023/08/02 02:56:05;;;;;;;14.55;6.95;;;15.50;99.90;;;;;;6070460;23;20098;-82
2023/08/02 02:58:31;;;;;;;15.00;6.63;;;15.50;99.90;;;;;;6094758;23;20401;-83
2023/08/02 03:00:57;;;;;;;15.57;6.65;;;15.40;99.90;;;;;;6095970;23;20025;-82
2023/08/02 03:03:23;;;;;;;11.70;6.78;;;15.50;99.90;;;;;;6094073;23;20018;-83
2023/08/02 03:05:49;;;;;;;16.02;6.85;;;15.40;99.90;;;;;;6094517;23;20018;-82
2023/08/02 03:08:15;;;;;;;14.65;6.10;;;15.40;99.90;;;;;;6095923;23;20029;-82
2023/08/02 03:10:40;;;;;;;12.15;6.30;;;15.50;99.90;;;;;;6094554;23;20021;-82
2023/08/02 03:13:06;;;;;;;14.10;6.18;;;15.40;99.90;;;;;;6094017;23;20022;-82
2023/08/02 03:15:32;;;;;;;17.17;6.97;;;15.40;99.90;;;;;;6094554;23;20019;-82
2023/08/02 03:17:57;;;;;;;14.85;6.57;;;15.40;99.90;;;;;;6093747;23;20032;-84
2023/08/02 03:20:23;;;;;;;14.98;7.15;;;15.40;99.90;;;;;;6094576;23;20022;-85
2023/08/02 03:22:49;;;;;;;16.35;6.82;;;15.40;99.90;;;;;;6094159;23;20018;-82
2023/08/02 03:25:15;;;;;;;14.20;6.60;;;15.40;99.90;;;;;;6093816;23;20025;-82
2023/08/02 03:27:40;;;;;;;20.98;7.25;;;15.40;99.90;;;;;;6093707;23;20586;-82
2023/08/02 03:30:07;;;;;;;11.60;6.35;;;15.40;99.90;;;;;;6094425;23;20113;-82
2023/08/02 03:32:32;;;;;;;16.58;6.53;;;15.40;99.90;;;;;;6070323;23;20114;-83
2023/08/02 03:34:58;;;;;;;14.18;6.20;;;15.40;99.90;;;;;;6070383;23;20046;-84
2023/08/02 03:37:24;;;;;;;17.25;6.65;;;15.40;99.90;;;;;;6094253;23;20022;-82
2023/08/02 03:39:49;;;;;;;19.50;7.05;;;15.40;99.90;;;;;;6094035;23;20041;-83
2023/08/02 03:42:15;;;;;;;14.60;6.95;;;15.40;99.90;;;;;;6118419;23;20010;-82
2023/08/02 03:44:41;;;;;;;13.52;6.72;;;15.30;99.90;;;;;;6095343;23;20388;-83
2023/08/02 03:47:06;;;;;;;14.93;7.32;;;15.30;99.90;;;;;;6095907;23;20014;-82
2023/08/02 03:49:32;;;;;;;16.02;6.93;;;15.30;99.90;;;;;;6094638;23;20026;-82
2023/08/02 03:51:58;;;;;;;15.52;7.13;;;15.30;99.90;;;;;;6093957;23;20019;-82
2023/08/02 03:54:24;;;;;;;16.45;7.25;;;15.30;99.90;;;;;;6118862;23;20681;-82
2023/08/02 03:56:49;;;;;;;13.73;7.07;;;15.30;99.90;;;;;;6069583;23;20093;-82
2023/08/02 03:59:15;;;;;;;14.18;6.95;;;15.30;99.90;;;;;;6093133;23;20602;-82
2023/08/02 04:01:41;;;;;;;16.00;7.25;;;15.20;99.90;;;;;;6095859;23;20416;-82
2023/08/02 04:04:07;;;;;;;17.65;7.82;;;15.20;99.90;;;;;;6094299;23;20097;-83
2023/08/02 04:06:33;;;;;;;11.90;7.18;;;15.20;99.90;;;;;;6093663;23;20043;-83
2023/08/02 04:08:58;;;;;;;14.70;7.30;;;15.20;99.90;;;;;;6070394;23;20026;-82
2023/08/02 04:11:24;;;;;;;15.75;7.22;;;15.10;99.90;;;;;;6070039;23;20014;-82
2023/08/02 04:13:50;;;;;;;13.43;7.38;;;15.10;99.90;;;;;;6094304;23;20326;-82
2023/08/02 04:16:16;;;;;;;15.82;7.70;;;15.10;99.90;;;;;;6094253;23;20708;-83
2023/08/02 04:18:42;;;;;;;13.45;6.82;;;15.10;99.90;;;;;;6093800;23;20058;-83
2023/08/02 04:21:08;;;;;;;11.25;7.20;;;15.10;99.90;;;;;;6094400;23;20041;-83
2023/08/02 04:23:34;;;;;;;14.20;7.20;;;15.10;99.90;;;;;;6070237;23;20026;-82
2023/08/02 04:25:59;;;;;;;13.18;7.35;;;15.10;99.90;;;;;;6046711;23;20011;-83
2023/08/02 04:28:25;;;;;;;13.32;7.25;;;15.00;99.90;;;;;;6094328;23;20345;-83
2023/08/02 04:30:51;;;;;;;13.35;7.28;;;15.00;99.90;;;;;;6070370;23;20025;-83
2023/08/02 04:33:18;;;;;;;14.13;6.88;;;15.00;99.90;;;;;;6070710;23;20018;-83
2023/08/02 04:35:43;;;;;;;12.82;7.82;;;15.00;99.90;;;;;;6070350;23;20131;-82
2023/08/02 04:38:09;;;;;;;11.82;7.55;;;14.90;99.90;;;;;;6092693;23;20022;-83
2023/08/02 04:40:41;;;;;;;15.73;7.15;;;15.00;99.90;;;;;;6095060;23;20022;-82
2023/08/02 04:43:06;;;;;;;17.73;8.02;;;15.00;99.90;;;;;;6094112;23;20089;-83
2023/08/02 04:45:32;;;;;;;16.40;7.45;;;14.90;99.90;;;;;;6093605;23;20053;-84
2023/08/02 04:47:58;;;;;;;14.43;8.05;;;14.90;99.90;;;;;;6090797;23;20025;-81
2023/08/02 04:50:24;;;;;;;12.55;7.40;;;14.90;99.90;;;;;;6093905;23;20505;-82
2023/08/02 04:52:49;;;;;;;15.98;8.27;;;15.00;99.90;;;;;;6093601;23;20526;-82
2023/08/02 04:55:15;;;;;;;15.68;8.32;;;15.00;99.90;;;;;;6070151;23;20096;-81
2023/08/02 04:57:41;;;;;;;15.40;7.82;;;15.00;99.90;;;;;;6094036;23;20040;-83
2023/08/02 05:00:07;;;;;;;12.45;7.25;;;14.90;99.90;;;;;;6095489;23;20023;-81
2023/08/02 05:02:36;;;;;;;12.48;7.32;;;15.00;99.90;;;;;;6093880;23;20097;-83
2023/08/02 05:05:02;;;;;;;16.08;7.63;;;15.00;99.90;;;;;;6093547;23;20392;-82
2023/08/02 05:07:33;;;;;;;12.85;7.53;;;15.00;99.90;;;;;;6093105;23;20209;-82
2023/08/02 05:10:03;;;;;;;16.27;7.97;;;14.90;99.90;;;;;;6095476;23;20025;-82
2023/08/02 05:12:33;;;;;;;15.57;8.18;;;15.00;99.90;;;;;;6093638;23;20428;-82
2023/08/02 05:14:59;;;;;;;14.73;7.50;;;15.00;99.90;;;;;;6094114;23;20037;-81
2023/08/02 05:17:27;;;;;;;13.77;8.02;;;15.00;99.90;;;;;;6095527;23;20437;-83
2023/08/02 05:19:53;;;;;;;14.27;8.48;;;15.00;99.90;;;;;;6095470;23;20065;-83
2023/08/02 05:22:19;;;;;;;15.75;8.07;;;15.00;99.90;;;;;;6069779;23;20018;-83
2023/08/02 05:24:44;;;;;;;12.90;7.93;;;15.00;99.90;;;;;;6071253;23;20449;-82
2023/08/02 05:27:10;;;;;;;14.77;8.27;;;15.00;99.90;;;;;;6097222;23;20014;-84
2023/08/02 05:29:36;;;;;;;12.93;8.00;;;15.00;99.90;;;;;;6071273;23;20238;-83
2023/08/02 05:32:02;;;;;;;12.95;8.02;;;15.10;99.90;;;;;;6071823;23;20033;-83
2023/08/02 05:34:28;;;;;;;13.75;7.60;;;15.10;99.90;;;;;;6095852;23;20073;-83
2023/08/02 05:36:54;;;;;;;14.00;8.20;;;15.20;99.90;;;;;;6095126;23;20022;-84
2023/08/02 05:39:19;;;;;;;13.18;8.20;;;15.20;99.90;;;;;;6095598;23;20622;-84
2023/08/02 05:41:45;;;;;;;14.73;7.75;;;15.20;99.90;;;;;;6071039;23;20025;-81
2023/08/02 05:44:11;;;;;;;11.43;7.90;;;15.20;99.90;;;;;;6095849;23;20018;-84
2023/08/02 05:46:37;;;;;;;14.88;7.90;;;15.30;99.90;;;;;;6096822;23;20018;-81
2023/08/02 05:49:02;;;;;;;11.45;7.75;;;15.30;99.90;;;;;;6097193;23;20022;-83
2023/08/02 05:51:28;;;;;;;16.45;8.38;;;15.30;99.90;;;;;;6095828;23;20022;-81
2023/08/02 05:53:54;;;;;;;13.02;7.55;;;15.30;99.90;;;;;;6096949;23;20018;-81
2023/08/02 05:56:20;;;;;;;13.10;7.75;;;15.40;99.90;;;;;;6095602;23;20018;-81
2023/08/02 05:58:45;;;;;;;12.98;7.43;;;15.40;99.90;;;;;;6071040;23;20034;-82
2023/08/02 06:01:11;;;;;;;13.65;7.80;;;15.50;99.90;;;;;;6096714;23;20445;-82
2023/08/02 06:03:37;;;;;;;11.98;7.57;;;15.50;99.90;;;;;;6071029;23;20445;-82
2023/08/02 06:06:02;;;;;;;14.57;7.07;;;15.60;99.90;;;;;;6095176;23;20015;-81
2023/08/02 06:08:28;;;;;;;11.07;6.95;;;15.70;99.90;;;;;;6070840;23;20018;-82
2023/08/02 06:10:54;;;;;;;11.70;6.93;;;15.80;99.90;;;;;;6047406;23;20356;-81
2023/08/02 06:13:20;;;;;;;12.23;6.90;;;15.80;99.90;;;;;;6092868;23;20073;-81
2023/08/02 06:15:45;;;;;;;12.90;7.18;;;15.90;99.90;;;;;;6095001;23;20014;-81
2023/08/02 06:18:11;;;;;;;12.70;6.45;;;15.80;99.90;;;;;;6094678;23;20022;-82
2023/08/02 06:20:37;;;;;;;10.35;6.78;;;15.90;99.90;;;;;;6070778;23;20011;-81
2023/08/02 06:23:02;;;;;;;9.88;6.53;;;15.90;99.90;;;;;;6071304;23;20089;-83
2023/08/02 06:25:28;;;;;;;10.48;7.13;;;15.90;99.90;;;;;;6071192;23;20453;-82
2023/08/02 06:27:54;;;;;;;12.93;6.05;;;16.00;99.90;;;;;;6070859;23;20025;-82
2023/08/02 06:30:20;;;;;;;12.45;6.32;;;16.00;99.90;;;;;;6095410;23;20093;-81
2023/08/02 06:32:45;;;;;;;12.63;6.50;;;16.00;99.90;;;;;;6071166;23;20014;-82
2023/08/02 06:35:12;;;;;;;12.38;5.53;;;16.00;99.90;;;;;;6071733;23;20014;-82
2023/08/02 06:37:37;;;;;;;11.32;6.00;;;16.00;99.90;;;;;;6095358;23;20149;-81
2023/08/02 06:40:04;;;;;;;12.90;6.90;;;16.10;99.90;;;;;;6070843;23;20057;-82
2023/08/02 06:42:29;;;;;;;15.60;6.22;;;16.10;99.90;;;;;;6094582;23;20037;-83
2023/08/02 06:44:57;;;;;;;10.75;6.57;;;16.20;99.90;;;;;;6071410;23;20023;-83
2023/08/02 06:47:22;;;;;;;11.35;6.85;;;16.20;99.90;;;;;;6071365;23;20015;-84
2023/08/02 06:49:48;;;;;;;10.85;6.57;;;16.30;99.90;;;;;;6071112;23;20018;-81
2023/08/02 06:52:14;;;;;;;12.88;6.40;;;16.40;99.90;;;;;;6095147;23;20022;-82
2023/08/02 06:54:40;;;;;;;12.27;6.32;;;16.30;99.90;;;;;;6095050;23;20014;-82
2023/08/02 06:57:07;;;;;;;13.02;6.30;;;16.40;99.90;;;;;;6092950;23;20081;-83
2023/08/02 06:59:32;;;;;;;11.93;6.50;;;16.30;99.90;;;;;;6092742;23;20033;-81
2023/08/02 07:01:58;;;;;;;12.98;5.82;;;16.30;99.90;;;;;;6069321;23;20568;-81
2023/08/02 07:04:24;;;;;;;10.10;6.28;;;16.40;99.90;;;;;;6092453;23;20097;-82
2023/08/02 07:06:49;;;;;;;11.82;5.60;;;16.30;99.90;;;;;;6092737;23;20404;-82
2023/08/02 07:09:15;;;;;;;8.88;5.18;;;16.30;99.90;;;;;;6092661;23;20083;-81
2023/08/02 07:11:41;;;;;;;8.68;4.75;;;16.20;99.90;;;;;;6069190;23;20109;-84
2023/08/02 07:14:07;;;;;;;8.02;5.47;;;16.20;99.90;;;;;;6092993;23;20022;-82
2023/08/02 07:16:32;;;;;;;10.30;5.43;;;16.20;99.90;;;;;;6069362;23;20078;-83
2023/08/02 07:19:02;;;;;;;8.82;4.32;;;16.10;99.90;;;;;;6092937;23;20345;-83
2023/08/02 07:21:29;;;;;;;7.97;4.55;;;16.10;99.90;;;;;;6069747;23;20018;-82
2023/08/02 07:23:55;;;;;;;10.57;5.07;;;16.10;99.90;;;;;;6069845;23;20449;-82
2023/08/02 07:26:23;;;;;;;9.23;4.70;;;16.00;99.90;;;;;;6069734;23;20015;-82
2023/08/02 07:28:49;;;;;;;6.65;4.20;;;16.00;99.90;;;;;;6093340;23;20329;-82
2023/08/02 07:31:15;;;;;;;9.35;4.35;;;16.00;99.90;;;;;;6093043;23;20025;-82
2023/08/02 07:33:41;;;;;;;14.65;5.22;;;16.00;99.90;;;;;;6093313;23;20064;-82
2023/08/02 07:36:17;;;;;;;11.05;4.70;;;16.00;99.90;;;;;;6069287;23;20064;-82
2023/08/02 07:38:44;;;;;;;7.35;4.50;;;16.00;99.90;;;;;;6092348;23;20049;-83
2023/08/02 07:41:10;;;;;;;10.90;5.22;;;16.10;99.90;;;;;;6091115;23;20049;-83
2023/08/02 07:43:35;;;;;;;13.70;5.63;;;16.10;99.90;;;;;;6090793;23;20073;-83
2023/08/02 07:46:01;;;;;;;7.45;4.65;;;16.10;99.90;;;;;;6092635;23;20444;-82
2023/08/02 07:48:27;;;;;;;7.85;4.47;;;16.10;99.90;;;;;;6092725;23;20019;-82
2023/08/02 07:50:52;;;;;;;9.15;4.57;;;16.20;99.90;;;;;;6045257;23;20397;-83
2023/08/02 07:53:18;;;;;;;9.98;4.75;;;16.10;99.90;;;;;;6092935;23;20018;-82
2023/08/02 07:55:44;;;;;;;11.55;4.95;;;16.20;99.90;;;;;;6093274;23;20029;-84
2023/08/02 07:58:10;;;;;;;10.77;5.20;;;16.20;99.90;;;;;;6092651;23;20048;-82
2023/08/02 08:00:35;;;;;;;13.57;4.97;;;16.20;99.90;;;;;;6092943;23;20046;-81
2023/08/02 08:03:03;;;;;;;9.43;5.50;;;16.10;99.90;;;;;;6092850;23;20053;-82
2023/08/02 08:05:30;;;;;;;10.45;4.90;;;16.10;99.90;;;;;;6092432;23;20109;-81
2023/08/02 08:07:56;;;;;;;10.25;5.18;;;16.00;99.90;;;;;;6092138;23;20023;-84
2023/08/02 08:10:22;;;;;;;8.95;4.65;;;16.00;99.90;;;;;;6092324;23;20014;-83
2023/08/02 08:12:48;;;;;;;10.93;5.10;;;15.90;99.90;;;;;;6092736;23;20176;-85
2023/08/02 08:15:13;;;;;;;11.15;5.18;;;15.90;99.90;;;;;;6092522;23;20014;-83
2023/08/02 08:17:46;;;;;;;11.30;5.55;;;15.80;99.90;;;;;;5087242;28;20424;-76
2023/08/02 08:20:12;;;;;;;11.18;5.45;;;15.80;99.90;;;;;;5087865;28;20113;-76
2023/08/02 08:22:37;;;;;;;13.38;5.57;;;15.70;99.90;;;;;;5086052;28;20361;-76
2023/08/02 08:25:03;;;;;;;10.65;5.60;;;15.70;99.90;;;;;;5057998;28;20048;-75
2023/08/02 08:27:29;;;;;;;9.95;4.95;;;15.70;99.90;;;;;;5088193;28;20051;-75
2023/08/02 08:29:55;;;;;;;11.90;5.30;;;15.60;99.90;;;;;;5073208;28;20512;-76
2023/08/02 08:32:26;;;;;;;14.57;5.35;;;15.60;99.90;;;;;;5090379;28;20032;-76
2023/08/02 08:34:52;;;;;;;10.52;5.30;;;15.60;99.90;;;;;;5088386;28;20051;-74
2023/08/02 08:37:18;;;;;;;10.93;5.22;;;15.50;99.90;;;;;;5069726;28;20052;-74
2023/08/02 08:39:43;;;;;;;9.15;4.68;;;15.60;99.90;;;;;;5085025;28;20078;-74
2023/08/02 08:42:10;;;;;;;7.68;4.90;;;15.50;99.90;;;;;;5087328;28;20052;-74
2023/08/02 08:44:37;;;;;;;11.77;5.82;;;15.50;99.90;;;;;;5068354;28;20797;-74
2023/08/02 08:47:06;;;;;;;10.32;4.75;;;15.50;99.90;;;;;;5082833;28;20703;-74
2023/08/02 08:49:32;;;;;;;9.45;5.30;;;15.50;99.90;;;;;;5084913;28;20105;-74
2023/08/02 08:52:03;;;;;;;11.00;5.50;;;15.50;99.90;;;;;;5079799;28;20100;-74
2023/08/02 08:54:30;;;;;;;8.83;5.30;;;15.50;99.90;;;;;;5087137;28;20533;-74
2023/08/02 08:56:58;;;;;;;8.13;4.53;;;15.50;99.90;;;;;;5083522;28;20127;-76
2023/08/02 08:59:25;;;;;;;11.07;5.72;;;15.50;99.90;;;;;;5089174;28;20052;-76
2023/08/02 09:01:51;;;;;;;11.15;5.68;;;15.60;99.90;;;;;;5083584;28;20040;-73
2023/08/02 09:04:18;;;;;;;9.02;5.43;;;15.60;99.90;;;;;;5085210;28;20574;-73
2023/08/02 09:06:43;;;;;;;10.43;5.75;;;15.60;99.90;;;;;;5084257;28;20049;-73
2023/08/02 09:09:13;;;;;;;9.98;5.60;;;15.60;99.90;;;;;;5088922;28;20079;-72
2023/08/02 09:11:39;;;;;;;9.00;6.00;;;15.60;99.90;;;;;;5093189;28;20049;-73
2023/08/02 09:14:12;;;;;;;10.90;6.82;;;15.60;99.90;;;;;;5093450;28;20063;-72
2023/08/02 09:16:55;;;;;;;11.15;5.97;;;15.60;99.90;;;;;;5091030;28;20119;-73
2023/08/02 09:19:23;;;;;;;10.07;6.30;;;15.60;99.90;;;;;;5087921;28;20072;-73
2023/08/02 09:22:10;;;;;;;7.45;6.05;;;15.60;99.90;;;;;;5087877;28;20044;-72
2023/08/02 09:24:37;;;;;;;12.20;6.57;;;15.60;99.90;;;;;;5089621;28;20143;-71
2023/08/02 09:27:11;;;;;;;13.48;6.90;;;15.60;99.90;;;;;;5077754;28;20080;-70
2023/08/02 09:29:53;;;;;;;12.15;6.88;;;15.70;99.90;;;;;;5077156;28;20075;-70
2023/08/02 09:32:21;;;;;;;12.30;6.60;;;15.70;99.90;;;;;;5084218;28;20040;-70
2023/08/02 09:34:49;;;;;;;14.43;7.50;;;15.60;99.90;;;;;;5078551;28;20036;-71
2023/08/02 09:37:28;;;;;;;9.40;6.63;;;15.70;99.90;;;;;;5078866;28;20041;-71
2023/08/02 09:39:54;;;;;;;12.05;7.10;;;15.80;99.90;;;;;;5058013;28;20083;-71
2023/08/02 09:42:25;;;;;;;11.68;7.18;;;15.80;99.90;;;;;;5070010;28;20037;-71
2023/08/02 09:45:05;;;;;;;13.05;7.22;;;16.00;99.90;;;;;;5066365;28;20093;-70
2023/08/02 09:47:31;;;;;;;9.55;7.00;;;16.00;99.90;;;;;;5077442;28;20088;-71
2023/08/02 09:50:09;;;;;;;12.32;7.20;;;16.10;99.90;;;;;;5063582;28;20160;-71
2023/08/02 09:52:37;;;;;;;11.75;7.13;;;16.10;99.90;;;;;;5077187;28;20052;-71
2023/08/02 09:55:03;;;;;;;12.27;7.53;;;16.10;99.90;;;;;;5078587;28;20040;-71
2023/08/02 09:57:30;;;;;;;11.40;7.10;;;16.20;99.90;;;;;;5074124;28;20044;-70
2023/08/02 10:00:00;;;;;;;10.57;6.78;;;16.20;99.90;;;;;;5077263;28;20445;-71
2023/08/02 10:02:28;;;;;;;8.82;6.47;;;16.20;99.90;;;;;;5075887;28;20105;-70
2023/08/02 10:04:56;;;;;;;11.35;6.95;;;16.20;99.90;;;;;;5067085;28;20333;-70
2023/08/02 10:07:45;;;;;;;10.52;7.13;;;16.20;99.90;;;;;;5077424;28;20041;-70
2023/08/02 10:10:27;;;;;;;9.13;6.20;;;16.20;99.90;;;;;;5076780;28;20072;-70
2023/08/02 10:12:56;;;;;;;;;;;16.30;99.90;;;;;;5074173;28;20040;-71
2023/08/02 10:15:23;;;;;;;6.97;6.00;;;16.20;99.90;;;;;;5067707;28;19993;-71
2023/08/02 10:17:49;;;;;;;9.00;5.60;;;16.20;99.90;;;;;;5077938;28;20048;-71
2023/08/02 10:20:15;;;;;;;9.35;6.38;;;16.30;99.90;;;;;;5067183;28;20128;-72
2023/08/02 10:22:42;;;;;;;8.90;5.80;;;16.30;99.90;;;;;;5065647;22;20140;-85
2023/08/02 10:25:08;;;;;;;9.35;5.35;;;16.30;99.90;;;;;;5045258;28;20151;-85
2023/08/02 10:27:35;;;;;;;5.57;4.50;;;16.30;99.90;;;;;;4978863;28;20637;-82
2023/08/02 10:30:04;;;;;;;5.97;4.88;;;16.30;99.90;;;;;;5037476;28;20071;-82
2023/08/02 10:32:29;;;;;;;6.05;5.18;;;16.30;99.90;;;;;;5033581;28;20049;-81
2023/08/02 10:34:56;;;;;;;5.93;4.80;;;16.30;99.90;;;;;;5027788;23;20055;-85
2023/08/02 10:37:22;;;;;;;5.80;4.70;;;16.30;99.90;;;;;;5028087;28;20051;-82
2023/08/02 10:39:48;;;;;;;6.70;4.05;;;16.30;99.90;;;;;;5045431;28;20037;-83
2023/08/02 10:42:18;;;;;;;4.53;3.72;;;16.30;99.90;;;;;;5041306;28;20068;-85
2023/08/02 10:44:56;;;;;;;5.38;4.03;;;16.40;99.90;;;;;;5024400;28;20087;-85
2023/08/02 10:47:26;;;;;;;4.05;3.42;;;16.40;99.90;;;;;;5032759;28;20396;-81
2023/08/02 10:49:52;;;;;;;4.22;3.35;;;16.40;99.90;;;;;;5050391;28;20052;-81
2023/08/02 10:52:33;;;;;;;4.97;3.70;;;16.40;99.90;;;;;;5046040;28;20040;-86
2023/08/02 10:55:05;;;;;;;3.95;3.45;;;16.40;99.90;;;;;;5061086;28;20135;-84
2023/08/02 10:57:31;;;;;;;4.07;3.38;;;16.40;99.90;;;;;;5051496;28;20074;-89
2023/08/02 10:59:57;;;;;;;3.53;3.22;;;16.40;99.90;;;;;;5051425;28;20037;-83
2023/08/02 11:02:25;;;;;;;3.35;2.95;;;16.40;99.90;;;;;;5051379;28;20098;-84
2023/08/02 11:04:52;;;;;;;3.63;3.33;;;16.50;99.90;;;;;;5035104;28;20041;-87
2023/08/02 11:07:20;;;;;;;3.95;2.78;;;16.50;99.90;;;;;;5035523;28;20199;-85
2023/08/02 11:09:47;;;;;;;6.07;3.10;;;16.50;99.90;;;;;;5031767;28;20124;-83
2023/08/02 11:12:15;;;;;;;2.88;2.67;;;16.50;99.90;;;;;;5030757;28;20556;-86
2023/08/02 11:14:46;;;;;;;2.78;2.58;;;16.50;99.90;;;;;;5051890;28;20110;-85
2023/08/02 11:17:15;;;;;;;2.80;2.60;;;16.50;99.90;;;;;;5051488;28;20049;-83
2023/08/02 11:19:47;;;;;;;3.00;2.70;;;16.50;99.90;;;;;;5051216;28;20036;-83
2023/08/02 11:22:12;;;;;;;2.35;2.15;;;16.50;99.90;;;;;;5065979;28;20047;-82
2023/08/02 11:24:46;;;;;;;6.30;2.55;;;16.50;99.90;;;;;;5051544;28;20041;-83
2023/08/02 11:27:20;;;;;;;2.92;2.30;;;16.50;99.90;;;;;;5041784;28;20045;-83
2023/08/02 11:29:59;;;;;;;2.80;2.60;;;16.60;99.90;;;;;;5019263;28;20416;-81
2023/08/02 11:32:26;;;;;;;2.40;2.20;;;16.60;99.90;;;;;;5040864;28;20037;-86
2023/08/02 11:34:52;;;;;;;2.08;1.77;;;16.60;99.90;;;;;;5034230;28;20068;-84
2023/08/02 11:37:19;;;;;;;2.38;2.17;;;16.70;99.90;;;;;;5009524;28;20041;-83
2023/08/02 11:39:56;;;;;;;2.10;2.00;;;16.70;99.90;;;;;;5030636;28;20052;-83
2023/08/02 11:42:22;;;;;;;2.25;2.05;;;16.70;99.90;;;;;;5045388;28;20408;-86
2023/08/02 11:44:48;;;;;;;2.28;2.08;;;16.80;99.90;;;;;;5034819;28;20044;-82
2023/08/02 11:47:14;;;;;;;2.22;2.03;;;16.80;99.90;;;;;;5034545;28;20049;-87
2023/08/02 11:49:51;;;;;;;2.17;1.95;;;16.80;99.90;;;;;;5050750;28;20041;-82
2023/08/02 11:52:37;;;;;;;2.10;2.00;;;16.90;99.90;;;;;;5034382;28;20055;-84
2023/08/02 11:55:03;;;;;;;2.30;1.98;;;17.00;99.90;;;;;;5050486;28;20415;-85
2023/08/02 11:57:29;;;;;;;1.95;1.85;;;17.10;99.90;;;;;;5017596;28;20467;-82
2023/08/02 11:59:56;;;;;;;1.60;1.50;;;17.30;99.90;;;;;;5034639;28;20099;-86
2023/08/02 12:02:29;;;;;;;1.80;1.70;;;17.40;99.90;;;;;;5056514;28;20077;-80
2023/08/02 12:04:56;;;;;;;2.00;1.90;;;17.50;99.90;;;;;;5070715;28;20044;-82
2023/08/02 12:07:32;;;;;;;1.90;1.80;;;17.70;99.90;;;;;;5053885;28;20152;-81
2023/08/02 12:10:01;;;;;;;2.30;2.10;;;17.80;99.90;;;;;;5022499;28;20500;-81
2023/08/02 12:12:37;;;;;;;2.35;2.15;;;18.00;99.90;;;;;;5050161;28;20047;-81
2023/08/02 12:15:14;;;;;;;2.95;2.30;;;18.10;99.90;;;;;;5033934;28;20051;-85
2023/08/02 12:17:40;;;;;;;2.60;2.40;;;18.30;99.90;;;;;;5033506;28;20377;-84
2023/08/02 12:20:06;;;;;;;2.70;2.50;;;18.60;99.90;;;;;;5058789;28;20709;-83
2023/08/02 12:22:48;;;;;;;2.15;1.95;;;18.80;99.90;;;;;;5017808;28;20051;-82
2023/08/02 12:25:13;;;;;;;2.20;2.10;;;18.80;99.90;;;;;;5050404;28;20064;-84
2023/08/02 12:27:39;;;;;;;2.53;2.33;;;18.80;99.90;;;;;;5017741;28;20072;-83
2023/08/02 12:30:15;;;;;;;3.25;2.85;;;18.80;99.90;;;;;;5049987;28;20398;-83
2023/08/02 12:32:41;;;;;;;2.90;2.70;;;18.80;99.90;;;;;;5057991;28;20049;-81
2023/08/02 12:35:09;;;;;;;3.15;2.85;;;18.70;99.90;;;;;;5027059;28;20128;-81
2023/08/02 12:37:35;;;;;;;3.05;2.85;;;18.70;99.90;;;;;;5028523;28;20417;-82
2023/08/02 12:40:01;;;;;;;2.88;2.67;;;18.70;99.90;;;;;;5045969;28;20044;-83
2023/08/02 12:42:27;;;;;;;3.72;3.28;;;18.70;99.90;;;;;;5050307;28;20036;-82